.
WxDataArchive / Data Records for 2008-03-08
2008-03-07 March 2008 2008-03-09

Data Records for Saturday, 08 March 2008

Time	Temp	Chill	HIndex	Humid	Dewpt	 Wind 	HiWind	WindDir	Rain 	Barom 
-----	----	-----	------	-----	-----	------	------	-------	-----	----- 
00:00	21.3	21.3	21.3	73	14.0	1	4	112	0.00	29.980 
00:05	21.1	21.1	21.1	73	13.8	1	5	22	0.00	29.977 
00:10	21.3	21.3	21.3	72	13.7	2	7	68	0.00	29.973 
00:15	21.3	21.3	21.3	73	14.0	1	4	68	0.00	29.969 
00:20	21.3	21.3	21.3	73	14.0	2	9	68	0.00	29.970 
00:25	21.3	21.3	21.3	72	13.7	2	5	68	0.00	29.966 
00:30	21.3	21.3	21.3	72	13.7	1	5	68	0.00	29.966 
00:35	21.3	21.3	21.3	72	13.7	1	6	112	0.00	29.966 
00:40	21.3	21.3	21.3	72	13.7	1	5	22	0.00	29.967 
00:45	21.3	21.3	21.3	73	14.0	0	2	45	0.00	29.964 
00:50	21.3	21.3	21.3	73	14.0	1	5	112	0.00	29.961 
00:55	21.3	21.3	21.3	73	14.0	1	7	22	0.00	29.951 
01:00	21.1	21.1	21.1	74	14.1	1	6	22	0.00	29.943 
01:05	21.1	21.1	21.1	75	14.4	3	7	45	0.00	29.933 
01:10	21.0	21.0	21.0	76	14.6	2	5	68	0.00	29.932 
01:15	21.0	21.0	21.0	77	14.9	2	6	45	0.00	29.936 
01:20	20.8	20.8	20.8	77	14.7	1	4	22	0.00	29.934 
01:25	20.8	20.8	20.8	77	14.7	1	3	338	0.00	29.932 
01:30	20.6	20.6	20.6	78	14.8	1	6	45	0.00	29.932 
01:35	20.6	20.6	20.6	78	14.8	2	6	22	0.00	29.930 
01:40	20.6	20.6	20.6	78	14.8	2	4	22	0.00	29.926 
01:45	20.6	20.6	20.6	78	14.8	2	5	22	0.00	29.920 
01:50	20.6	20.6	20.6	78	14.8	1	4	0	0.00	29.917 
01:55	20.6	20.6	20.6	77	14.6	1	4	0	0.00	29.910 
02:00	20.6	20.6	20.6	76	14.3	2	7	22	0.00	29.903 
02:05	20.6	20.6	20.6	76	14.3	2	6	45	0.00	29.905 
02:10	20.6	20.6	20.6	76	14.3	1	5	338	0.00	29.902 
02:15	20.6	20.6	20.6	76	14.3	2	7	45	0.00	29.899 
02:20	20.6	20.6	20.6	75	14.0	3	9	22	0.00	29.899 
02:25	20.6	20.6	20.6	73	13.3	3	9	45	0.00	29.898 
02:30	20.6	20.6	20.6	73	13.3	3	11	45	0.00	29.890 
02:35	20.6	14.9	20.6	72	13.0	4	14	45	0.00	29.903 
02:40	20.8	20.8	20.8	72	13.2	3	9	90	0.00	29.904 
02:45	20.8	20.8	20.8	70	12.6	3	6	45	0.00	29.898 
02:50	21.0	21.0	21.0	69	12.5	3	11	45	0.00	29.880 
02:55	21.0	21.0	21.0	68	12.1	2	5	68	0.00	29.868 
03:00	21.0	21.0	21.0	66	11.5	3	12	112	0.00	29.856 
03:05	21.0	21.0	21.0	66	11.5	2	10	112	0.00	29.851 
03:10	20.8	20.8	20.8	65	10.9	1	4	45	0.00	29.851 
03:15	20.8	20.8	20.8	63	10.2	1	4	0	0.00	29.853 
03:20	20.6	20.6	20.6	62	9.7	3	11	45	0.00	29.854 
03:25	20.6	20.6	20.6	62	9.7	2	7	0	0.00	29.862 
03:30	20.6	20.6	20.6	62	9.7	2	9	22	0.00	29.870 
03:35	20.5	20.5	20.5	60	8.9	2	7	22	0.00	29.874 
03:40	20.5	20.5	20.5	60	8.9	2	7	22	0.00	29.886 
03:45	20.5	20.5	20.5	60	8.9	2	6	0	0.00	29.888 
03:50	20.5	20.5	20.5	60	8.9	2	5	45	0.00	29.889 
03:55	20.5	20.5	20.5	59	8.5	3	9	22	0.00	29.887 
04:00	20.5	20.5	20.5	58	8.1	2	6	22	0.00	29.874 
04:05	20.3	20.3	20.3	59	8.3	3	6	135	0.00	29.873 
04:10	20.3	20.3	20.3	60	8.7	2	6	45	0.00	29.865 
04:15	20.2	20.2	20.2	60	8.6	1	4	22	0.00	29.841 
04:20	20.0	20.0	20.0	60	8.4	1	4	22	0.00	29.859 
04:25	19.9	19.9	19.9	59	7.9	2	11	0	0.00	29.871 
04:30	19.9	19.9	19.9	59	7.9	1	5	0	0.00	29.869 
04:35	19.9	19.9	19.9	60	8.3	1	4	135	0.00	29.872 
04:40	19.9	19.9	19.9	58	7.5	1	4	22	0.00	29.878 
04:45	19.9	19.9	19.9	58	7.5	2	7	22	0.00	29.870 
04:50	19.9	19.9	19.9	58	7.5	3	8	68	0.00	29.873 
04:55	19.7	19.7	19.7	59	7.7	1	5	68	0.00	29.857 
05:00	19.7	19.7	19.7	59	7.7	2	6	68	0.00	29.851 
05:05	19.7	19.7	19.7	59	7.7	2	7	0	0.00	29.853 
05:10	19.5	19.5	19.5	60	7.9	1	7	22	0.00	29.842 
05:15	19.5	19.5	19.5	60	7.9	2	10	45	0.00	29.838 
05:20	19.4	19.4	19.4	60	7.8	1	4	0	0.00	29.837 
05:25	19.4	19.4	19.4	60	7.8	2	5	22	0.00	29.829 
05:30	19.4	19.4	19.4	61	8.2	1	5	315	0.00	29.843 
05:35	19.4	19.4	19.4	61	8.2	1	4	338	0.00	29.842 
05:40	19.4	19.4	19.4	62	8.5	1	4	22	0.00	29.850 
05:45	19.4	19.4	19.4	62	8.5	1	4	22	0.00	29.859 
05:50	19.4	19.4	19.4	62	8.5	1	3	68	0.00	29.858 
05:55	19.4	19.4	19.4	63	8.9	1	3	22	0.00	29.859 
06:00	19.4	19.4	19.4	62	8.5	1	4	22	0.00	29.855 
06:05	19.4	19.4	19.4	62	8.5	1	5	135	0.00	29.862 
06:10	19.2	19.2	19.2	63	8.7	1	4	22	0.00	29.855 
06:15	19.2	19.2	19.2	63	8.7	1	6	338	0.00	29.850 
06:20	19.1	19.1	19.1	63	8.6	2	7	0	0.00	29.847 
06:25	19.1	19.1	19.1	64	9.0	1	5	45	0.00	29.840 
06:30	18.9	18.9	18.9	64	8.8	2	5	0	0.00	29.834 
06:35	18.9	18.9	18.9	65	9.1	1	6	0	0.00	29.832 
06:40	18.8	18.8	18.8	65	9.0	1	5	338	0.00	29.831 
06:45	18.6	18.6	18.6	65	8.8	1	6	338	0.00	29.838 
06:50	18.6	18.6	18.6	65	8.8	1	4	338	0.00	29.840 
06:55	18.4	18.4	18.4	65	8.6	1	4	22	0.00	29.840 
07:00	18.4	18.4	18.4	66	9.0	1	4	315	0.00	29.844 
07:05	18.3	18.3	18.3	66	8.9	1	5	0	0.00	29.840 
07:10	18.3	18.3	18.3	66	8.9	1	4	22	0.00	29.844 
07:15	18.1	18.1	18.1	67	9.0	1	5	0	0.00	29.843 
07:20	18.1	18.1	18.1	67	9.0	1	4	0	0.00	29.839 
07:25	18.0	18.0	18.0	67	8.9	1	5	0	0.00	29.839 
07:30	17.8	17.8	17.8	67	8.7	1	5	22	0.00	29.844 
07:35	17.8	17.8	17.8	67	8.7	2	10	338	0.00	29.845 
07:40	17.8	17.8	17.8	66	8.4	2	5	0	0.00	29.847 
07:45	18.0	18.0	18.0	65	8.3	2	5	0	0.00	29.859 
07:50	18.0	18.0	18.0	65	8.3	2	5	0	0.00	29.860 
07:55	18.1	18.1	18.1	65	8.3	1	4	338	0.00	29.859 
08:00	18.1	18.1	18.1	65	8.3	2	10	338	0.00	29.860 
08:05	18.1	18.1	18.1	65	8.3	1	3	0	0.00	29.855 
08:10	18.1	18.1	18.1	64	8.0	3	9	315	0.00	29.847 
08:15	18.1	18.1	18.1	65	8.3	3	7	0	0.00	29.845 
08:20	18.4	18.4	18.4	65	8.6	1	5	338	0.00	29.845 
08:25	18.6	18.6	18.6	65	8.8	1	5	338	0.00	29.845 
08:30	18.6	18.6	18.6	65	8.8	2	7	315	0.00	29.845 
08:35	18.6	18.6	18.6	65	8.8	2	5	315	0.00	29.843 
08:40	18.8	18.8	18.8	66	9.4	1	4	338	0.00	29.840 
08:45	18.6	18.6	18.6	67	9.5	1	6	338	0.00	29.834 
08:50	18.1	18.1	18.1	67	9.0	3	10	338	0.00	29.829 
08:55	18.1	18.1	18.1	69	9.7	2	7	315	0.00	29.838 
09:00	18.0	18.0	18.0	69	9.6	2	6	0	0.00	29.830 
09:05	17.8	17.8	17.8	69	9.4	2	7	338	0.00	29.842 
09:10	17.8	17.8	17.8	70	9.7	1	5	338	0.00	29.829 
09:15	17.5	17.5	17.5	70	9.4	2	6	338	0.00	29.834 
09:20	17.5	17.5	17.5	70	9.4	2	7	0	0.00	29.834 
09:25	17.3	17.3	17.3	71	9.5	2	5	0	0.00	29.830 
09:30	17.2	17.2	17.2	70	9.1	2	5	315	0.00	29.825 
09:35	17.2	17.2	17.2	71	9.4	2	6	338	0.00	29.824 
09:40	17.2	17.2	17.2	71	9.4	2	7	338	0.00	29.814 
09:45	17.2	17.2	17.2	70	9.1	3	11	0	0.00	29.815 
09:50	17.2	17.2	17.2	71	9.4	2	11	338	0.00	29.811 
09:55	17.3	17.3	17.3	71	9.5	2	4	315	0.00	29.804 
10:00	17.2	17.2	17.2	71	9.4	2	8	338	0.00	29.800 
10:05	17.2	17.2	17.2	72	9.8	2	6	315	0.00	29.800 
10:10	17.3	17.3	17.3	71	9.5	2	7	338	0.00	29.803 
10:15	17.3	17.3	17.3	70	9.2	2	5	338	0.00	29.805 
10:20	17.5	17.5	17.5	70	9.4	2	6	0	0.00	29.803 
10:25	17.7	17.7	17.7	70	9.6	2	10	338	0.00	29.803 
10:30	17.7	17.7	17.7	71	9.9	2	5	292	0.00	29.802 
10:35	17.7	17.7	17.7	71	9.9	2	5	0	0.00	29.802 
10:40	17.8	17.8	17.8	70	9.7	2	9	0	0.00	29.801 
10:45	18.1	18.1	18.1	69	9.7	2	5	338	0.00	29.801 
10:50	18.3	18.3	18.3	68	9.5	2	5	338	0.00	29.806 
10:55	18.4	18.4	18.4	67	9.3	1	5	22	0.00	29.809 
11:00	18.6	18.6	18.6	66	9.2	2	9	338	0.00	29.809 
11:05	18.9	18.9	18.9	66	9.4	1	4	0	0.00	29.812 
11:10	19.1	19.1	19.1	66	9.6	2	8	315	0.00	29.813 
11:15	19.1	19.1	19.1	65	9.3	3	7	338	0.00	29.815 
11:20	19.2	19.2	19.2	65	9.4	1	5	0	0.00	29.816 
11:25	19.4	19.4	19.4	65	9.6	2	6	338	0.00	29.817 
11:30	19.4	19.4	19.4	65	9.6	1	5	270	0.00	29.820 
11:35	19.4	19.4	19.4	64	9.2	2	5	315	0.00	29.821 
11:40	19.5	19.5	19.5	64	9.3	2	9	315	0.00	29.823 
11:45	19.7	19.7	19.7	64	9.5	2	5	315	0.00	29.825 
11:50	19.9	19.9	19.9	64	9.7	1	5	338	0.00	29.827 
11:55	20.0	20.0	20.0	63	9.5	2	7	0	0.00	29.829 
12:00	20.2	20.2	20.2	63	9.7	2	4	315	0.00	29.830 
12:05	20.3	20.3	20.3	63	9.7	1	4	0	0.00	29.830 
12:10	20.5	20.5	20.5	63	9.9	2	7	338	0.00	29.830 
12:15	20.8	20.8	20.8	63	10.2	1	3	338	0.00	29.827 
12:20	21.0	21.0	21.0	62	10.1	2	6	315	0.00	29.828 
12:25	21.0	21.0	21.0	62	10.1	2	7	315	0.00	29.826 
12:30	21.3	21.3	21.3	62	10.3	2	6	315	0.00	29.826 
12:35	21.6	21.6	21.6	62	10.6	2	5	338	0.00	29.828 
12:40	21.8	21.8	21.8	61	10.4	3	11	315	0.00	29.829 
12:45	22.2	22.2	22.2	61	10.8	2	6	0	0.00	29.829 
12:50	22.5	22.5	22.5	60	10.7	2	6	292	0.00	29.828 
12:55	22.9	22.9	22.9	59	10.7	2	6	315	0.00	29.824 
13:00	23.2	23.2	23.2	59	11.0	2	5	0	0.00	29.821 
13:05	23.5	23.5	23.5	58	10.9	2	9	315	0.00	29.821 
13:10	23.9	23.9	23.9	57	10.9	2	4	0	0.00	29.821 
13:15	24.2	24.2	24.2	57	11.2	2	6	292	0.00	29.820 
13:20	24.8	24.8	24.8	57	11.8	2	7	338	0.00	29.816 
13:25	24.7	24.7	24.7	54	10.5	3	8	338	0.00	29.819 
13:30	25.1	25.1	25.1	54	10.8	2	6	338	0.00	29.819 
13:35	25.3	25.3	25.3	54	11.0	3	10	315	0.00	29.816 
13:40	25.7	25.7	25.7	53	11.0	2	5	0	0.00	29.812 
13:45	25.8	25.8	25.8	54	11.5	2	9	270	0.00	29.812 
13:50	25.7	25.7	25.7	53	11.0	3	9	292	0.00	29.812 
13:55	25.8	25.8	25.8	54	11.5	2	7	292	0.00	29.811 
14:00	25.4	20.5	25.4	52	10.3	4	10	315	0.00	29.812 
14:05	25.4	25.4	25.4	53	10.7	3	9	315	0.00	29.812 
14:10	25.7	25.7	25.7	53	11.0	3	7	315	0.00	29.813 
14:15	26.0	26.0	26.0	53	11.2	2	7	315	0.00	29.815 
14:20	26.3	26.3	26.3	52	11.1	2	5	338	0.00	29.818 
14:25	26.3	26.3	26.3	55	12.4	3	9	338	0.00	29.821 
14:30	25.8	20.9	25.8	54	11.5	4	12	315	0.00	29.824 
14:35	26.0	26.0	26.0	55	12.1	3	7	315	0.00	29.825 
14:40	26.4	26.4	26.4	55	12.5	3	10	292	0.00	29.825 
14:45	26.7	26.7	26.7	54	12.3	3	7	292	0.00	29.824 
14:50	26.4	21.6	26.4	54	12.0	4	11	338	0.00	29.827 
14:55	26.7	26.7	26.7	53	11.9	3	9	292	0.00	29.825 
15:00	26.7	26.7	26.7	52	11.5	3	9	315	0.00	29.825 
15:05	27.0	27.0	27.0	52	11.7	2	8	270	0.00	29.828 
15:10	27.0	27.0	27.0	51	11.3	2	7	315	0.00	29.831 
15:15	27.2	27.2	27.2	52	11.9	2	5	292	0.00	29.834 
15:20	27.0	27.0	27.0	53	12.2	3	9	270	0.00	29.838 
15:25	26.9	26.9	26.9	54	12.5	3	6	292	0.00	29.839 
15:30	27.0	27.0	27.0	53	12.2	3	9	270	0.00	29.840 
15:35	27.2	27.2	27.2	51	11.5	3	9	315	0.00	29.841 
15:40	27.0	27.0	27.0	52	11.7	3	7	292	0.00	29.844 
15:45	27.0	22.3	27.0	50	10.9	4	12	270	0.00	29.848 
15:50	26.9	26.9	26.9	53	12.1	3	10	315	0.00	29.855 
15:55	27.0	27.0	27.0	52	11.7	3	10	270	0.00	29.857 
16:00	26.7	22.0	26.7	51	11.0	4	9	292	0.00	29.864 
16:05	26.4	26.4	26.4	51	10.8	3	9	292	0.00	29.869 
16:10	26.6	26.6	26.6	50	10.5	3	9	315	0.00	29.869 
16:15	26.6	26.6	26.6	49	10.0	3	7	315	0.00	29.870 
16:20	26.3	26.3	26.3	49	9.8	3	7	315	0.00	29.872 
16:25	26.6	26.6	26.6	49	10.0	2	5	338	0.00	29.872 
16:30	26.9	26.9	26.9	48	9.9	3	6	292	0.00	29.876 
16:35	26.7	26.7	26.7	48	9.7	3	9	315	0.00	29.876 
16:40	26.3	26.3	26.3	48	9.3	3	10	270	0.00	29.880 
16:45	26.3	26.3	26.3	49	9.8	2	10	315	0.00	29.884 
16:50	26.7	26.7	26.7	48	9.7	3	5	338	0.00	29.886 
16:55	26.9	26.9	26.9	48	9.9	2	5	315	0.00	29.889 
17:00	26.7	26.7	26.7	49	10.1	2	5	315	0.00	29.892 
17:05	26.4	26.4	26.4	49	9.9	2	5	315	0.00	29.893 
17:10	26.6	26.6	26.6	49	10.0	2	5	292	0.00	29.894 
17:15	26.7	26.7	26.7	49	10.1	2	4	315	0.00	29.898 
17:20	27.2	27.2	27.2	48	10.1	3	10	270	0.00	29.902 
17:25	27.0	27.0	27.0	46	9.0	3	7	270	0.00	29.904 
17:30	27.0	27.0	27.0	47	9.5	3	9	270	0.00	29.904 
17:35	27.0	27.0	27.0	46	9.0	2	6	292	0.00	29.905 
17:40	26.7	26.7	26.7	47	9.2	2	5	270	0.00	29.907 
17:45	26.4	26.4	26.4	47	8.9	3	8	315	0.00	29.910 
17:50	26.3	26.3	26.3	47	8.8	1	5	338	0.00	29.915 
17:55	26.3	26.3	26.3	47	8.8	2	9	270	0.00	29.921 
18:00	26.0	26.0	26.0	47	8.6	2	4	315	0.00	29.923 
18:05	25.8	25.8	25.8	49	9.3	3	5	270	0.00	29.924 
18:10	25.7	25.7	25.7	50	9.7	2	4	270	0.00	29.928 
18:15	25.6	25.6	25.6	51	10.0	3	11	270	0.00	29.933 
18:20	25.3	25.3	25.3	53	10.6	2	6	270	0.00	29.939 
18:25	25.1	25.1	25.1	53	10.4	2	6	270	0.00	29.940 
18:30	25.0	25.0	25.0	54	10.7	2	6	248	0.00	29.942 
18:35	25.0	25.0	25.0	53	10.3	3	7	270	0.00	29.944 
18:40	24.7	24.7	24.7	54	10.5	1	4	292	0.00	29.945 
18:45	24.5	24.5	24.5	54	10.3	1	4	270	0.00	29.951 
18:50	24.4	24.4	24.4	55	10.6	1	6	270	0.00	29.954 
18:55	24.1	24.1	24.1	55	10.3	2	4	270	0.00	29.958 
19:00	23.9	23.9	23.9	55	10.1	2	6	270	0.00	29.962 
19:05	23.8	23.8	23.8	55	10.0	2	7	270	0.00	29.967 
19:10	23.6	23.6	23.6	56	10.2	2	6	292	0.00	29.971 
19:15	23.3	23.3	23.3	56	10.0	2	4	270	0.00	29.972 
19:20	23.2	23.2	23.2	56	9.9	2	5	292	0.00	29.975 
19:25	23.0	23.0	23.0	56	9.7	2	5	270	0.00	29.977 
19:30	22.9	22.9	22.9	57	10.0	2	4	270	0.00	29.985 
19:35	22.5	22.5	22.5	57	9.6	1	4	270	0.00	29.988 
19:40	22.4	22.4	22.4	58	9.9	1	3	270	0.00	29.991 
19:45	22.2	22.2	22.2	58	9.7	1	2	248	0.00	29.996 
19:50	21.9	21.9	21.9	59	9.8	1	3	270	0.00	29.994 
19:55	21.8	21.8	21.8	59	9.7	1	2	292	0.00	30.000 
20:00	21.8	21.8	21.8	58	9.3	1	6	270	0.00	30.003 
20:05	21.6	21.6	21.6	58	9.1	1	3	270	0.00	30.004 
20:10	21.4	21.4	21.4	58	8.9	0	2	248	0.00	30.007 
20:15	21.1	21.1	21.1	58	8.7	0	3	248	0.00	30.007 
20:20	21.0	21.0	21.0	58	8.6	1	3	248	0.00	30.009 
20:25	20.8	20.8	20.8	58	8.4	0	2	248	0.00	30.011 
20:30	20.6	20.6	20.6	58	8.2	0	2	248	0.00	30.016 
20:35	20.6	20.6	20.6	58	8.2	0	5	248	0.00	30.019 
20:40	20.5	20.5	20.5	58	8.1	1	4	248	0.00	30.022 
20:45	20.3	20.3	20.3	59	8.3	0	2	248	0.00	30.023 
20:50	20.3	20.3	20.3	58	7.9	1	4	248	0.00	30.024 
20:55	20.2	20.2	20.2	58	7.8	0	2	248	0.00	30.027 
21:00	20.0	20.0	20.0	57	7.2	0	2	248	0.00	30.028 
21:05	20.0	20.0	20.0	56	6.9	0	2	248	0.00	30.032 
21:10	19.7	19.7	19.7	57	7.0	0	3	248	0.00	30.037 
21:15	19.7	19.7	19.7	58	7.3	1	3	248	0.00	30.039 
21:20	19.4	19.4	19.4	58	7.1	0	1	248	0.00	30.040 
21:25	19.4	19.4	19.4	58	7.1	0	1	248	0.00	30.041 
21:30	19.1	19.1	19.1	58	6.8	0	4	248	0.00	30.043 
21:35	19.1	19.1	19.1	58	6.8	0	2	248	0.00	30.045 
21:40	18.9	18.9	18.9	59	7.0	0	2	248	0.00	30.050 
21:45	18.8	18.8	18.8	59	6.9	0	2	248	0.00	30.054 
21:50	18.8	18.8	18.8	60	7.2	0	2	248	0.00	30.055 
21:55	18.8	18.8	18.8	60	7.2	0	3	248	0.00	30.056 
22:00	18.6	18.6	18.6	60	7.1	1	3	248	0.00	30.057 
22:05	18.6	18.6	18.6	60	7.1	1	4	270	0.00	30.057 
22:10	18.6	18.6	18.6	61	7.4	0	2	270	0.00	30.063 
22:15	18.4	18.4	18.4	61	7.2	0	3	225	0.00	30.066 
22:20	18.4	18.4	18.4	61	7.2	0	2	225	0.00	30.069 
22:25	18.4	18.4	18.4	62	7.6	0	2	270	0.00	30.071 
22:30	18.3	18.3	18.3	62	7.5	0	2	270	0.00	30.072 
22:35	18.3	18.3	18.3	62	7.5	0	2	248	0.00	30.073 
22:40	18.3	18.3	18.3	62	7.5	0	2	248	0.00	30.077 
22:45	18.1	18.1	18.1	63	7.7	0	3	248	0.00	30.084 
22:50	18.1	18.1	18.1	63	7.7	0	2	248	0.00	30.086 
22:55	18.0	18.0	18.0	64	7.9	0	2	248	0.00	30.088 
23:00	18.0	18.0	18.0	64	7.9	1	4	248	0.00	30.089 
23:05	18.1	18.1	18.1	65	8.3	1	4	248	0.00	30.090 
23:10	18.3	18.3	18.3	65	8.5	1	2	248	0.00	30.093 
23:15	18.4	18.4	18.4	65	8.6	0	2	248	0.00	30.098 
23:20	18.6	18.6	18.6	66	9.2	0	4	248	0.00	30.100 
23:25	18.9	18.9	18.9	66	9.4	1	3	248	0.00	30.102 
23:30	19.2	19.2	19.2	67	10.1	1	3	248	0.00	30.103 
23:35	19.4	19.4	19.4	67	10.3	1	9	248	0.00	30.105 
23:40	19.5	19.5	19.5	68	10.7	1	3	225	0.00	30.106 
23:45	19.7	19.7	19.7	68	10.9	1	4	248	0.00	30.108 
23:50	19.7	19.7	19.7	68	10.9	1	4	248	0.00	30.113 
23:55	19.9	19.9	19.9	69	11.4	1	4	270	0.00	30.114 

CoCoRaHS
IN-AL-39
A2 Web Hosting
Creative Commons License
GoDaddy
Look for:

loaded 2017-10-17 22:37:40 • last modified 2010-11-18 10:43:29
Privacy PolicyDisclaimer
• wx.awcolley.com is powered by PmWiki v.2002016 •
• all content (unless otherwise noted) © 2017 A W Colley